DAL3232 KPHX-PHOG
Flight info
| Callsign | DAL3232 |
|---|---|
| Flight time | N/A |
| Altitude | 38000 |
| Route | KEENS3 HRRBR CURIV J212 DECAS LAX DINTY R576 DUSAC/N0473F400 R576 DENNS LNDHY1 |
| Aircraft | B77L/H-SDE1E2E3FGHIJ2J3J4J5M1RWXY/LB1D1 |
Departure
| Time | N/A |
|---|---|
| Airport | Phoenix Sky Harbor International Airport (KPHX) |
Arrival
| Time | 2026-04-29 12:28 |
|---|---|
| Airport | Kahului International Airport (PHOG) |
| Time | Latitude | Longitude | Altitude | Speed | Heading |
|---|---|---|---|---|---|
| 2026-04-29 10:24 | 28.03777 | -141.19779 | 38290 ft | 462 kts | 247° |
| 2026-04-29 10:24 | 28.02496 | -141.23115 | 38288 ft | 462 kts | 247° |
| 2026-04-29 10:24 | 27.99931 | -141.29784 | 38290 ft | 462 kts | 247° |
| 2026-04-29 10:25 | 27.97367 | -141.36444 | 38269 ft | 462 kts | 245° |
| 2026-04-29 10:25 | 27.94799 | -141.43098 | 38292 ft | 461 kts | 245° |
| 2026-04-29 10:26 | 27.92227 | -141.49749 | 38296 ft | 462 kts | 245° |
| 2026-04-29 10:26 | 27.89668 | -141.56359 | 38294 ft | 462 kts | 245° |
| 2026-04-29 10:27 | 27.85796 | -141.66337 | 38295 ft | 462 kts | 245° |
| 2026-04-29 10:28 | 27.83212 | -141.72983 | 38284 ft | 462 kts | 244° |
| 2026-04-29 10:28 | 27.80627 | -141.79618 | 38281 ft | 462 kts | 244° |
| 2026-04-29 10:29 | 27.78052 | -141.86216 | 38290 ft | 462 kts | 244° |
| 2026-04-29 10:29 | 27.75444 | -141.92888 | 38279 ft | 462 kts | 244° |
| 2026-04-29 10:30 | 27.72865 | -141.99476 | 38282 ft | 462 kts | 244° |
| 2026-04-29 10:30 | 27.70264 | -142.06107 | 38287 ft | 461 kts | 244° |
| 2026-04-29 10:31 | 27.67664 | -142.12725 | 38283 ft | 461 kts | 244° |
| 2026-04-29 10:31 | 27.65058 | -142.19349 | 38283 ft | 461 kts | 244° |
| 2026-04-29 10:32 | 27.62455 | -142.25953 | 38287 ft | 461 kts | 244° |
| 2026-04-29 10:32 | 27.59845 | -142.32562 | 38282 ft | 461 kts | 244° |
| 2026-04-29 10:33 | 27.57234 | -142.39165 | 38280 ft | 461 kts | 244° |
| 2026-04-29 10:33 | 27.54620 | -142.45764 | 38279 ft | 461 kts | 244° |
| 2026-04-29 10:34 | 27.52025 | -142.52304 | 38280 ft | 461 kts | 244° |
| 2026-04-29 10:34 | 27.49402 | -142.58901 | 38279 ft | 460 kts | 244° |
| 2026-04-29 10:35 | 27.47227 | -142.64366 | 38277 ft | 460 kts | 244° |
| 2026-04-29 10:35 | 27.44602 | -142.70950 | 38280 ft | 460 kts | 244° |
| 2026-04-29 10:36 | 27.41978 | -142.77520 | 38280 ft | 460 kts | 244° |
| 2026-04-29 10:36 | 27.39354 | -142.84082 | 38281 ft | 459 kts | 244° |
| 2026-04-29 10:37 | 27.36730 | -142.90630 | 38276 ft | 459 kts | 243° |
| 2026-04-29 10:37 | 27.34103 | -142.97177 | 38274 ft | 459 kts | 243° |
| 2026-04-29 10:38 | 27.31472 | -143.03721 | 38277 ft | 459 kts | 243° |
| 2026-04-29 10:38 | 27.28841 | -143.10256 | 38275 ft | 459 kts | 243° |
| 2026-04-29 10:39 | 27.26225 | -143.16744 | 38273 ft | 458 kts | 243° |
| 2026-04-29 10:39 | 27.23590 | -143.23266 | 38277 ft | 458 kts | 243° |
| 2026-04-29 10:40 | 27.20949 | -143.29795 | 38273 ft | 458 kts | 243° |
| 2026-04-29 10:40 | 27.18309 | -143.36309 | 38271 ft | 458 kts | 243° |
| 2026-04-29 10:41 | 27.15666 | -143.42821 | 38271 ft | 458 kts | 243° |
| 2026-04-29 10:41 | 27.13022 | -143.49323 | 38270 ft | 458 kts | 243° |
| 2026-04-29 10:42 | 27.10379 | -143.55816 | 38269 ft | 457 kts | 243° |
| 2026-04-29 10:42 | 27.07731 | -143.62307 | 38269 ft | 457 kts | 243° |
| 2026-04-29 10:43 | 27.05083 | -143.68789 | 38266 ft | 457 kts | 243° |
| 2026-04-29 10:43 | 27.02449 | -143.75226 | 38267 ft | 457 kts | 243° |
| 2026-04-29 10:44 | 26.99798 | -143.81696 | 38265 ft | 456 kts | 242° |
| 2026-04-29 10:44 | 26.97144 | -143.88163 | 38267 ft | 456 kts | 242° |
| 2026-04-29 10:45 | 26.94490 | -143.94619 | 38261 ft | 456 kts | 242° |
| 2026-04-29 10:45 | 26.91829 | -144.01080 | 38263 ft | 456 kts | 242° |
| 2026-04-29 10:46 | 26.89166 | -144.07538 | 38259 ft | 456 kts | 242° |
| 2026-04-29 10:46 | 26.86510 | -144.13967 | 38255 ft | 456 kts | 242° |
| 2026-04-29 10:47 | 26.83852 | -144.20393 | 38254 ft | 456 kts | 242° |
| 2026-04-29 10:47 | 26.81179 | -144.26844 | 38256 ft | 456 kts | 242° |
| 2026-04-29 10:48 | 26.78505 | -144.33288 | 38251 ft | 456 kts | 242° |
| 2026-04-29 10:48 | 26.75827 | -144.39731 | 38250 ft | 457 kts | 242° |
| 2026-04-29 10:49 | 26.73144 | -144.46177 | 38252 ft | 457 kts | 242° |
| 2026-04-29 10:49 | 26.70458 | -144.52619 | 38252 ft | 457 kts | 242° |
| 2026-04-29 10:50 | 26.67764 | -144.59069 | 38251 ft | 457 kts | 242° |
| 2026-04-29 10:50 | 26.65069 | -144.65514 | 38247 ft | 457 kts | 242° |
| 2026-04-29 10:51 | 26.62371 | -144.71954 | 38248 ft | 457 kts | 242° |
| 2026-04-29 10:51 | 26.59670 | -144.78392 | 38250 ft | 458 kts | 242° |
| 2026-04-29 10:52 | 26.56965 | -144.84831 | 38249 ft | 458 kts | 242° |
| 2026-04-29 10:52 | 26.54277 | -144.91218 | 38247 ft | 458 kts | 242° |
| 2026-04-29 10:53 | 26.51562 | -144.97660 | 38243 ft | 458 kts | 242° |
| 2026-04-29 10:53 | 26.48847 | -145.04091 | 38243 ft | 458 kts | 242° |
| 2026-04-29 10:54 | 26.46127 | -145.10526 | 38239 ft | 458 kts | 242° |
| 2026-04-29 10:54 | 26.43407 | -145.16949 | 38239 ft | 458 kts | 242° |
| 2026-04-29 10:55 | 26.40684 | -145.23370 | 38241 ft | 458 kts | 242° |
| 2026-04-29 10:55 | 26.37956 | -145.29793 | 38237 ft | 458 kts | 242° |
| 2026-04-29 10:56 | 26.35227 | -145.36209 | 38240 ft | 458 kts | 242° |
| 2026-04-29 10:56 | 26.32494 | -145.42625 | 38237 ft | 458 kts | 242° |
| 2026-04-29 10:57 | 26.29760 | -145.49035 | 38239 ft | 458 kts | 242° |
| 2026-04-29 10:57 | 26.27021 | -145.55444 | 38232 ft | 458 kts | 242° |
| 2026-04-29 10:58 | 26.24282 | -145.61845 | 38231 ft | 458 kts | 242° |
| 2026-04-29 10:58 | 26.21547 | -145.68227 | 38235 ft | 458 kts | 242° |
| 2026-04-29 10:59 | 26.18814 | -145.74594 | 38235 ft | 457 kts | 242° |
| 2026-04-29 10:59 | 26.16068 | -145.80984 | 38232 ft | 457 kts | 242° |
| 2026-04-29 11:00 | 26.13322 | -145.87363 | 38228 ft | 457 kts | 242° |
| 2026-04-29 11:00 | 26.10572 | -145.93741 | 38230 ft | 457 kts | 242° |
| 2026-04-29 11:01 | 26.07820 | -146.00115 | 38228 ft | 457 kts | 242° |
| 2026-04-29 11:01 | 26.05068 | -146.06482 | 38230 ft | 456 kts | 242° |
| 2026-04-29 11:02 | 26.02334 | -146.12797 | 38225 ft | 456 kts | 242° |
| 2026-04-29 11:02 | 25.99580 | -146.19149 | 38227 ft | 456 kts | 242° |
| 2026-04-29 11:03 | 25.96825 | -146.25495 | 38226 ft | 456 kts | 242° |
| 2026-04-29 11:03 | 25.94072 | -146.31836 | 38219 ft | 455 kts | 242° |
| 2026-04-29 11:04 | 25.91318 | -146.38170 | 38211 ft | 455 kts | 242° |
| 2026-04-29 11:04 | 25.88562 | -146.44499 | 38213 ft | 455 kts | 242° |
| 2026-04-29 11:05 | 25.85808 | -146.50815 | 38218 ft | 454 kts | 242° |
| 2026-04-29 11:05 | 25.83054 | -146.57119 | 38223 ft | 454 kts | 242° |
| 2026-04-29 11:06 | 25.80306 | -146.63403 | 38218 ft | 454 kts | 242° |
| 2026-04-29 11:06 | 25.77544 | -146.69710 | 38212 ft | 454 kts | 242° |
| 2026-04-29 11:07 | 25.74781 | -146.76009 | 38215 ft | 454 kts | 242° |
| 2026-04-29 11:07 | 25.72015 | -146.82307 | 38208 ft | 454 kts | 242° |
| 2026-04-29 11:08 | 25.69247 | -146.88599 | 38211 ft | 454 kts | 242° |
| 2026-04-29 11:08 | 25.66473 | -146.94896 | 38208 ft | 454 kts | 242° |
| 2026-04-29 11:09 | 25.63699 | -147.01184 | 38207 ft | 454 kts | 242° |
| 2026-04-29 11:09 | 25.60945 | -147.07418 | 38202 ft | 454 kts | 242° |
| 2026-04-29 11:10 | 25.58169 | -147.13693 | 38193 ft | 453 kts | 242° |
| 2026-04-29 11:10 | 25.55389 | -147.19967 | 38207 ft | 453 kts | 242° |
| 2026-04-29 11:11 | 25.52613 | -147.26225 | 38208 ft | 453 kts | 242° |
| 2026-04-29 11:11 | 25.49831 | -147.32485 | 38192 ft | 453 kts | 242° |
| 2026-04-29 11:12 | 25.47048 | -147.38740 | 38197 ft | 453 kts | 242° |
| 2026-04-29 11:12 | 25.44262 | -147.44993 | 38196 ft | 453 kts | 242° |
| 2026-04-29 11:13 | 25.41472 | -147.51245 | 38208 ft | 453 kts | 242° |
| 2026-04-29 11:13 | 25.38684 | -147.57485 | 38191 ft | 453 kts | 242° |
| 2026-04-29 11:14 | 25.35906 | -147.63694 | 38199 ft | 453 kts | 242° |
| 2026-04-29 11:14 | 25.33107 | -147.69941 | 38197 ft | 453 kts | 242° |
| 2026-04-29 11:15 | 25.30312 | -147.76169 | 38199 ft | 452 kts | 242° |
| 2026-04-29 11:15 | 25.27512 | -147.82401 | 38197 ft | 452 kts | 242° |
| 2026-04-29 11:16 | 25.24715 | -147.88617 | 38199 ft | 452 kts | 242° |
| 2026-04-29 11:16 | 25.21909 | -147.94844 | 38195 ft | 452 kts | 242° |
| 2026-04-29 11:17 | 25.19104 | -148.01060 | 38194 ft | 452 kts | 242° |
| 2026-04-29 11:17 | 25.16316 | -148.07231 | 38195 ft | 452 kts | 242° |
| 2026-04-29 11:18 | 25.13512 | -148.13429 | 38188 ft | 451 kts | 242° |
| 2026-04-29 11:18 | 25.10701 | -148.19633 | 38191 ft | 451 kts | 242° |
| 2026-04-29 11:19 | 25.07891 | -148.25826 | 38191 ft | 452 kts | 242° |
| 2026-04-29 11:19 | 25.05074 | -148.32027 | 38185 ft | 452 kts | 242° |
| 2026-04-29 11:20 | 25.02254 | -148.38224 | 38184 ft | 452 kts | 242° |
| 2026-04-29 11:20 | 24.99430 | -148.44423 | 38183 ft | 452 kts | 242° |
| 2026-04-29 11:21 | 24.96599 | -148.50628 | 38184 ft | 453 kts | 242° |
| 2026-04-29 11:21 | 24.94247 | -148.55777 | 38187 ft | 453 kts | 242° |
| 2026-04-29 11:22 | 24.91075 | -148.62713 | 38186 ft | 453 kts | 242° |
| 2026-04-29 11:22 | 24.88234 | -148.68915 | 38186 ft | 454 kts | 241° |
| 2026-04-29 11:23 | 24.85866 | -148.74079 | 38183 ft | 454 kts | 241° |
| 2026-04-29 11:23 | 24.83015 | -148.80287 | 38182 ft | 454 kts | 241° |
| 2026-04-29 11:24 | 24.80162 | -148.86491 | 38179 ft | 454 kts | 241° |
| 2026-04-29 11:24 | 24.77306 | -148.92694 | 38180 ft | 455 kts | 241° |
| 2026-04-29 11:25 | 24.74444 | -148.98901 | 38180 ft | 455 kts | 241° |
| 2026-04-29 11:25 | 24.71578 | -149.05109 | 38181 ft | 455 kts | 241° |
| 2026-04-29 11:26 | 24.67273 | -149.14417 | 38181 ft | 455 kts | 241° |
| 2026-04-29 11:26 | 24.64396 | -149.20629 | 38178 ft | 456 kts | 241° |
| 2026-04-29 11:27 | 24.61536 | -149.26795 | 38173 ft | 456 kts | 241° |
| 2026-04-29 11:27 | 24.58655 | -149.32996 | 38179 ft | 456 kts | 241° |
| 2026-04-29 11:28 | 24.55764 | -149.39212 | 38179 ft | 456 kts | 241° |
| 2026-04-29 11:28 | 24.52870 | -149.45425 | 38178 ft | 456 kts | 240° |
| 2026-04-29 11:29 | 24.49973 | -149.51636 | 38176 ft | 457 kts | 240° |
| 2026-04-29 11:29 | 24.47074 | -149.57845 | 38176 ft | 457 kts | 240° |
| 2026-04-29 11:30 | 24.44181 | -149.64031 | 38172 ft | 457 kts | 240° |
| 2026-04-29 11:30 | 24.41295 | -149.70196 | 38178 ft | 457 kts | 240° |
| 2026-04-29 11:31 | 24.38385 | -149.76402 | 38170 ft | 457 kts | 240° |
| 2026-04-29 11:31 | 24.35475 | -149.82601 | 38169 ft | 456 kts | 240° |
| 2026-04-29 11:32 | 24.32565 | -149.88790 | 38172 ft | 456 kts | 240° |
| 2026-04-29 11:32 | 24.29656 | -149.94969 | 38167 ft | 456 kts | 240° |
| 2026-04-29 11:33 | 24.26768 | -150.01098 | 38170 ft | 455 kts | 240° |
| 2026-04-29 11:33 | 24.23857 | -150.07265 | 38162 ft | 455 kts | 240° |
| 2026-04-29 11:34 | 24.20951 | -150.13415 | 38162 ft | 454 kts | 240° |
| 2026-04-29 11:34 | 24.18044 | -150.19558 | 38165 ft | 454 kts | 240° |
| 2026-04-29 11:35 | 24.15136 | -150.25694 | 38164 ft | 454 kts | 240° |
| 2026-04-29 11:35 | 24.12225 | -150.31830 | 38167 ft | 453 kts | 240° |
| 2026-04-29 11:36 | 24.09315 | -150.37956 | 38169 ft | 453 kts | 240° |
| 2026-04-29 11:36 | 24.06402 | -150.44082 | 38161 ft | 454 kts | 240° |
| 2026-04-29 11:37 | 24.03483 | -150.50209 | 38161 ft | 454 kts | 240° |
| 2026-04-29 11:37 | 24.00582 | -150.56292 | 38159 ft | 454 kts | 240° |
| 2026-04-29 11:38 | 23.97659 | -150.62414 | 38156 ft | 454 kts | 240° |
| 2026-04-29 11:38 | 23.94742 | -150.68514 | 38158 ft | 454 kts | 240° |
| 2026-04-29 11:39 | 23.91801 | -150.74658 | 38154 ft | 454 kts | 240° |
| 2026-04-29 11:39 | 23.88868 | -150.80777 | 38159 ft | 454 kts | 240° |
| 2026-04-29 11:40 | 23.85932 | -150.86895 | 38155 ft | 455 kts | 240° |
| 2026-04-29 11:40 | 23.82991 | -150.93015 | 38160 ft | 455 kts | 240° |
| 2026-04-29 11:41 | 23.80049 | -150.99128 | 38156 ft | 455 kts | 240° |
| 2026-04-29 11:41 | 23.77100 | -151.05250 | 38158 ft | 455 kts | 240° |
| 2026-04-29 11:42 | 23.74149 | -151.11368 | 38158 ft | 455 kts | 240° |
| 2026-04-29 11:42 | 23.71213 | -151.17445 | 38158 ft | 455 kts | 240° |
| 2026-04-29 11:43 | 23.68257 | -151.23559 | 38154 ft | 455 kts | 240° |
| 2026-04-29 11:43 | 23.65300 | -151.29664 | 38154 ft | 455 kts | 240° |
| 2026-04-29 11:44 | 23.62339 | -151.35772 | 38152 ft | 455 kts | 241° |
| 2026-04-29 11:44 | 23.59380 | -151.41866 | 38154 ft | 455 kts | 241° |
| 2026-04-29 11:45 | 23.56420 | -151.47958 | 38153 ft | 455 kts | 241° |
| 2026-04-29 11:45 | 23.53456 | -151.54047 | 38150 ft | 455 kts | 241° |
| 2026-04-29 11:46 | 23.50492 | -151.60131 | 38150 ft | 454 kts | 241° |
| 2026-04-29 11:46 | 23.47544 | -151.66173 | 38149 ft | 454 kts | 241° |
| 2026-04-29 11:47 | 23.44571 | -151.72259 | 38145 ft | 454 kts | 241° |
| 2026-04-29 11:47 | 23.41600 | -151.78335 | 38150 ft | 454 kts | 242° |
| 2026-04-29 11:48 | 23.38629 | -151.84402 | 38144 ft | 454 kts | 242° |
| 2026-04-29 11:48 | 23.35653 | -151.90471 | 38150 ft | 454 kts | 242° |
| 2026-04-29 11:49 | 23.32672 | -151.96544 | 38150 ft | 454 kts | 242° |
| 2026-04-29 11:49 | 23.29692 | -152.02607 | 38147 ft | 454 kts | 242° |
| 2026-04-29 11:50 | 23.26711 | -152.08663 | 38150 ft | 454 kts | 242° |
| 2026-04-29 11:50 | 23.23727 | -152.14720 | 38149 ft | 454 kts | 242° |
| 2026-04-29 11:51 | 23.20765 | -152.20725 | 38148 ft | 453 kts | 242° |
| 2026-04-29 11:51 | 23.17785 | -152.26758 | 38152 ft | 453 kts | 243° |
| 2026-04-29 11:52 | 23.14806 | -152.32783 | 38146 ft | 452 kts | 243° |
| 2026-04-29 11:52 | 23.11828 | -152.38799 | 38148 ft | 452 kts | 243° |
| 2026-04-29 11:53 | 23.08851 | -152.44805 | 38146 ft | 451 kts | 243° |
| 2026-04-29 11:53 | 23.05871 | -152.50810 | 38145 ft | 451 kts | 243° |
| 2026-04-29 11:54 | 23.02894 | -152.56804 | 38142 ft | 451 kts | 243° |
| 2026-04-29 11:54 | 22.99901 | -152.62795 | 38141 ft | 451 kts | 243° |
| 2026-04-29 11:55 | 22.96902 | -152.68763 | 38141 ft | 451 kts | 243° |
| 2026-04-29 11:55 | 22.93921 | -152.74692 | 38137 ft | 450 kts | 243° |
| 2026-04-29 11:56 | 22.90919 | -152.80660 | 38139 ft | 450 kts | 243° |
| 2026-04-29 11:56 | 22.87918 | -152.86621 | 38137 ft | 450 kts | 243° |
| 2026-04-29 11:57 | 22.84916 | -152.92579 | 38136 ft | 450 kts | 244° |
| 2026-04-29 11:57 | 22.81917 | -152.98523 | 38133 ft | 449 kts | 244° |
| 2026-04-29 11:58 | 22.78914 | -153.04467 | 38131 ft | 449 kts | 244° |
| 2026-04-29 11:58 | 22.75936 | -153.10356 | 38133 ft | 448 kts | 244° |
| 2026-04-29 11:59 | 22.72938 | -153.16277 | 38132 ft | 448 kts | 244° |
| 2026-04-29 11:59 | 22.69940 | -153.22192 | 38128 ft | 448 kts | 244° |
| 2026-04-29 12:00 | 22.66938 | -153.28107 | 38132 ft | 448 kts | 244° |
| 2026-04-29 12:00 | 22.63937 | -153.34014 | 38132 ft | 448 kts | 244° |
| 2026-04-29 12:01 | 22.60935 | -153.39915 | 38128 ft | 447 kts | 244° |
| 2026-04-29 12:01 | 22.57931 | -153.45814 | 38131 ft | 447 kts | 244° |
| 2026-04-29 12:02 | 22.54931 | -153.51698 | 38131 ft | 446 kts | 245° |
| 2026-04-29 12:02 | 22.51930 | -153.57577 | 38128 ft | 446 kts | 245° |
| 2026-04-29 12:03 | 22.48930 | -153.63447 | 38127 ft | 445 kts | 245° |
| 2026-04-29 12:03 | 22.45933 | -153.69307 | 38126 ft | 445 kts | 245° |
| 2026-04-29 12:04 | 22.42955 | -153.75121 | 38138 ft | 445 kts | 245° |
| 2026-04-29 12:04 | 22.39959 | -153.80968 | 38132 ft | 444 kts | 245° |
| 2026-04-29 12:05 | 22.36965 | -153.86802 | 38135 ft | 443 kts | 245° |
| 2026-04-29 12:05 | 22.33862 | -153.92565 | 38126 ft | 444 kts | 243° |
| 2026-04-29 12:06 | 22.30582 | -153.98224 | 38126 ft | 445 kts | 242° |
| 2026-04-29 12:06 | 22.27301 | -154.03888 | 38128 ft | 444 kts | 242° |
| 2026-04-29 12:07 | 22.24270 | -154.09168 | 38122 ft | 444 kts | 243° |
| 2026-04-29 12:07 | 22.21353 | -154.14266 | 38120 ft | 444 kts | 243° |
| 2026-04-29 12:08 | 22.18115 | -154.19924 | 38120 ft | 443 kts | 243° |
| 2026-04-29 12:08 | 22.14879 | -154.25573 | 38128 ft | 442 kts | 243° |
| 2026-04-29 12:09 | 22.12194 | -154.30253 | 38115 ft | 441 kts | 243° |
| 2026-04-29 12:09 | 22.08950 | -154.35902 | 38114 ft | 440 kts | 243° |
| 2026-04-29 12:10 | 22.05753 | -154.41464 | 38120 ft | 438 kts | 243° |
| 2026-04-29 12:10 | 22.02544 | -154.47042 | 38116 ft | 437 kts | 243° |
| 2026-04-29 12:11 | 22.01122 | -154.49512 | 38116 ft | 437 kts | 243° |
| 2026-04-29 12:11 | 21.98835 | -154.53482 | 38115 ft | 436 kts | 243° |
| 2026-04-29 12:12 | 21.95637 | -154.59030 | 38113 ft | 436 kts | 243° |
| 2026-04-29 12:12 | 21.94108 | -154.61857 | 37620 ft | 441 kts | 245° |
| 2026-04-29 12:12 | 21.92626 | -154.64767 | 36949 ft | 442 kts | 246° |
| 2026-04-29 12:13 | 21.91173 | -154.67676 | 36264 ft | 439 kts | 246° |
| 2026-04-29 12:13 | 21.89741 | -154.70555 | 35733 ft | 433 kts | 246° |
| 2026-04-29 12:13 | 21.88318 | -154.73410 | 35172 ft | 430 kts | 246° |
| 2026-04-29 12:13 | 21.86907 | -154.76230 | 34639 ft | 426 kts | 247° |
| 2026-04-29 12:14 | 21.85502 | -154.79028 | 34108 ft | 423 kts | 247° |
| 2026-04-29 12:14 | 21.84104 | -154.81808 | 33528 ft | 420 kts | 247° |
| 2026-04-29 12:14 | 21.82715 | -154.84563 | 32969 ft | 417 kts | 247° |
| 2026-04-29 12:14 | 21.81335 | -154.87295 | 32448 ft | 413 kts | 247° |
| 2026-04-29 12:15 | 21.79988 | -154.89961 | 31933 ft | 410 kts | 247° |
| 2026-04-29 12:15 | 21.78631 | -154.92646 | 31424 ft | 406 kts | 247° |
| 2026-04-29 12:15 | 21.77282 | -154.95314 | 30926 ft | 403 kts | 247° |
| 2026-04-29 12:15 | 21.75945 | -154.97955 | 30431 ft | 401 kts | 247° |
| 2026-04-29 12:16 | 21.74614 | -155.00586 | 29899 ft | 398 kts | 247° |
| 2026-04-29 12:16 | 21.73293 | -155.03195 | 29335 ft | 396 kts | 247° |
| 2026-04-29 12:16 | 21.71978 | -155.05790 | 28832 ft | 393 kts | 247° |
| 2026-04-29 12:16 | 21.69089 | -155.11489 | 27727 ft | 386 kts | 246° |
| 2026-04-29 12:17 | 21.50523 | -155.48037 | 20940 ft | 362 kts | 245° |
| 2026-04-29 12:17 | 21.31271 | -155.85610 | 14238 ft | 347 kts | 243° |
| 2026-04-29 12:17 | 21.27012 | -155.93825 | 12487 ft | 349 kts | 243° |
| 2026-04-29 12:17 | 21.25829 | -155.96108 | 11986 ft | 350 kts | 243° |
| 2026-04-29 12:18 | 21.24660 | -155.98367 | 11456 ft | 352 kts | 243° |
| 2026-04-29 12:18 | 21.23473 | -156.00664 | 11004 ft | 351 kts | 243° |
| 2026-04-29 12:18 | 21.22292 | -156.02951 | 10584 ft | 350 kts | 243° |
| 2026-04-29 12:18 | 21.21119 | -156.05221 | 10360 ft | 343 kts | 243° |
| 2026-04-29 12:19 | 21.07765 | -156.20065 | 7884 ft | 281 kts | 208° |
| 2026-04-29 12:19 | 20.94371 | -156.30108 | 5766 ft | 258 kts | 214° |
| 2026-04-29 12:19 | 20.92918 | -156.31205 | 5489 ft | 254 kts | 213° |
| 2026-04-29 12:19 | 20.91019 | -156.32636 | 5123 ft | 249 kts | 213° |
| 2026-04-29 12:20 | 20.82000 | -156.39340 | 3908 ft | 183 kts | 212° |
| 2026-04-29 12:20 | 20.80871 | -156.40171 | 3813 ft | 214 kts | 212° |
| 2026-04-29 12:20 | 20.79581 | -156.41119 | 3949 ft | 232 kts | 212° |
| 2026-04-29 12:20 | 20.78224 | -156.42120 | 3785 ft | 241 kts | 213° |
| 2026-04-29 12:21 | 20.76835 | -156.43147 | 3433 ft | 242 kts | 212° |
| 2026-04-29 12:21 | 20.75478 | -156.44204 | 3094 ft | 240 kts | 214° |
| 2026-04-29 12:21 | 20.74145 | -156.45274 | 2739 ft | 239 kts | 216° |
| 2026-04-29 12:21 | 20.72834 | -156.46338 | 2447 ft | 231 kts | 221° |
| 2026-04-29 12:22 | 20.72008 | -156.47690 | 2376 ft | 208 kts | 259° |
| 2026-04-29 12:22 | 20.72092 | -156.49173 | 2425 ft | 204 kts | 296° |
| 2026-04-29 12:22 | 20.72951 | -156.50328 | 2394 ft | 195 kts | 327° |
| 2026-04-29 12:22 | 20.74046 | -156.51085 | 2381 ft | 187 kts | 334° |
| 2026-04-29 12:23 | 20.75193 | -156.51737 | 2369 ft | 183 kts | 342° |
| 2026-04-29 12:23 | 20.76395 | -156.52070 | 2375 ft | 172 kts | 4° |
| 2026-04-29 12:23 | 20.77441 | -156.51736 | 2410 ft | 148 kts | 28° |
| 2026-04-29 12:23 | 20.78318 | -156.51260 | 2394 ft | 132 kts | 32° |
| 2026-04-29 12:24 | 20.79118 | -156.50800 | 2392 ft | 131 kts | 31° |
| 2026-04-29 12:24 | 20.79927 | -156.50296 | 2237 ft | 137 kts | 35° |
| 2026-04-29 12:24 | 20.80718 | -156.49739 | 2061 ft | 135 kts | 35° |
| 2026-04-29 12:24 | 20.81486 | -156.49177 | 1876 ft | 131 kts | 36° |
| 2026-04-29 12:25 | 20.82216 | -156.48633 | 1711 ft | 129 kts | 37° |
| 2026-04-29 12:25 | 20.82963 | -156.48075 | 1530 ft | 131 kts | 36° |
| 2026-04-29 12:25 | 20.84457 | -156.46959 | 1155 ft | 133 kts | 35° |
| 2026-04-29 12:26 | 20.85200 | -156.46406 | 992 ft | 133 kts | 35° |
| 2026-04-29 12:26 | 20.85937 | -156.45853 | 810 ft | 126 kts | 33° |
| 2026-04-29 12:26 | 20.86655 | -156.45317 | 658 ft | 124 kts | 34° |
| 2026-04-29 12:26 | 20.87355 | -156.44796 | 458 ft | 122 kts | 32° |
| 2026-04-29 12:27 | 20.88065 | -156.44271 | 313 ft | 127 kts | 34° |
| 2026-04-29 12:27 | 20.88805 | -156.43717 | 131 ft | 129 kts | 34° |
| 2026-04-29 12:27 | 20.89512 | -156.43187 | 50 ft | 111 kts | 35° |
| 2026-04-29 12:27 | 20.89990 | -156.42834 | 48 ft | 55 kts | 34° |
| 2026-04-29 12:28 | 20.90311 | -156.42593 | 49 ft | 48 kts | 34° |
| 2026-04-29 12:28 | 20.90484 | -156.42539 | 50 ft | 14 kts | 299° |
| 2026-04-29 12:28 | 20.90454 | -156.42635 | 48 ft | 14 kts | 239° |
| 2026-04-29 12:28 | 20.90375 | -156.42705 | 50 ft | 16 kts | 214° |
| 2026-04-29 12:29 | 20.90282 | -156.42773 | 49 ft | 16 kts | 216° |
| 2026-04-29 12:29 | 20.90188 | -156.42848 | 48 ft | 18 kts | 216° |
| 2026-04-29 12:29 | 20.90073 | -156.42931 | 48 ft | 27 kts | 214° |
| 2026-04-29 12:29 | 20.89863 | -156.43086 | 48 ft | 38 kts | 216° |
| 2026-04-29 12:30 | 20.89722 | -156.43193 | 47 ft | 8 kts | 214° |
| 2026-04-29 12:30 | 20.89646 | -156.43248 | 49 ft | 18 kts | 215° |
| 2026-04-29 12:30 | 20.89636 | -156.43324 | 48 ft | 11 kts | 303° |
| 2026-04-29 12:30 | 20.89675 | -156.43384 | 50 ft | 2 kts | 305° |
| 2026-04-29 12:31 | 20.89676 | -156.43385 | 50 ft | 0 kts | 305° |